sensor_id;sensor_type;location;lat;lon;timestamp;pressure;altitude;pressure_sealevel;temperature;humidity
77019;BME280;66044;53.142;17.962;2023-04-06T00:01:51;101718.60;;;-0.71;60.20
77019;BME280;66044;53.142;17.962;2023-04-06T00:04:17;101714.69;;;-0.75;60.13
77019;BME280;66044;53.142;17.962;2023-04-06T00:06:44;101713.52;;;-0.79;60.18
77019;BME280;66044;53.142;17.962;2023-04-06T00:09:10;101716.27;;;-0.84;60.22
77019;BME280;66044;53.142;17.962;2023-04-06T00:11:37;101714.99;;;-0.89;60.34
77019;BME280;66044;53.142;17.962;2023-04-06T00:14:03;101718.67;;;-0.94;60.11
77019;BME280;66044;53.142;17.962;2023-04-06T00:16:29;101721.20;;;-0.98;60.22
77019;BME280;66044;53.142;17.962;2023-04-06T00:18:56;101716.76;;;-1.02;60.34
77019;BME280;66044;53.142;17.962;2023-04-06T00:21:23;101715.61;;;-1.06;60.28
77019;BME280;66044;53.142;17.962;2023-04-06T00:23:49;101716.79;;;-1.11;60.51
77019;BME280;66044;53.142;17.962;2023-04-06T00:26:16;101718.19;;;-1.15;60.29
77019;BME280;66044;53.142;17.962;2023-04-06T00:28:42;101722.13;;;-1.20;60.42
77019;BME280;66044;53.142;17.962;2023-04-06T00:31:09;101721.98;;;-1.25;60.52
77019;BME280;66044;53.142;17.962;2023-04-06T00:33:35;101720.90;;;-1.28;60.46
77019;BME280;66044;53.142;17.962;2023-04-06T00:36:01;101720.80;;;-1.32;60.53
77019;BME280;66044;53.142;17.962;2023-04-06T00:38:28;101722.76;;;-1.35;60.48
77019;BME280;66044;53.142;17.962;2023-04-06T00:40:55;101716.88;;;-1.40;60.91
77019;BME280;66044;53.142;17.962;2023-04-06T00:43:21;101716.02;;;-1.42;60.83
77019;BME280;66044;53.142;17.962;2023-04-06T00:45:48;101715.17;;;-1.45;60.69
77019;BME280;66044;53.142;17.962;2023-04-06T00:48:14;101717.27;;;-1.46;60.81
77019;BME280;66044;53.142;17.962;2023-04-06T00:50:42;101722.89;;;-1.47;60.99
77019;BME280;66044;53.142;17.962;2023-04-06T00:53:08;101723.79;;;-1.47;61.06
77019;BME280;66044;53.142;17.962;2023-04-06T00:55:34;101723.37;;;-1.47;61.14
77019;BME280;66044;53.142;17.962;2023-04-06T00:58:02;101723.00;;;-1.45;61.01
77019;BME280;66044;53.142;17.962;2023-04-06T01:00:30;101723.92;;;-1.44;61.32
77019;BME280;66044;53.142;17.962;2023-04-06T01:02:58;101725.90;;;-1.41;61.33
77019;BME280;66044;53.142;17.962;2023-04-06T01:05:24;101720.98;;;-1.40;61.19
77019;BME280;66044;53.142;17.962;2023-04-06T01:07:51;101721.22;;;-1.39;61.26
77019;BME280;66044;53.142;17.962;2023-04-06T01:10:27;101722.23;;;-1.37;61.11
77019;BME280;66044;53.142;17.962;2023-04-06T01:12:53;101724.17;;;-1.35;61.20
77019;BME280;66044;53.142;17.962;2023-04-06T01:15:20;101721.06;;;-1.33;61.40
77019;BME280;66044;53.142;17.962;2023-04-06T01:17:47;101720.94;;;-1.33;61.37
77019;BME280;66044;53.142;17.962;2023-04-06T01:20:14;101718.52;;;-1.33;61.41
77019;BME280;66044;53.142;17.962;2023-04-06T01:22:40;101720.58;;;-1.32;61.36
77019;BME280;66044;53.142;17.962;2023-04-06T01:25:08;101715.46;;;-1.32;61.41
77019;BME280;66044;53.142;17.962;2023-04-06T01:27:35;101714.09;;;-1.32;61.52
77019;BME280;66044;53.142;17.962;2023-04-06T01:30:01;101712.09;;;-1.32;61.41
77019;BME280;66044;53.142;17.962;2023-04-06T01:32:28;101711.77;;;-1.32;61.34
77019;BME280;66044;53.142;17.962;2023-04-06T01:34:55;101711.93;;;-1.32;61.40
77019;BME280;66044;53.142;17.962;2023-04-06T01:37:21;101710.96;;;-1.33;61.48
77019;BME280;66044;53.142;17.962;2023-04-06T01:39:48;101709.02;;;-1.33;61.14
77019;BME280;66044;53.142;17.962;2023-04-06T01:42:14;101710.33;;;-1.33;61.30
77019;BME280;66044;53.142;17.962;2023-04-06T01:44:40;101710.16;;;-1.33;61.22
77019;BME280;66044;53.142;17.962;2023-04-06T01:47:07;101709.27;;;-1.34;61.34
77019;BME280;66044;53.142;17.962;2023-04-06T01:49:33;101711.16;;;-1.35;61.38
77019;BME280;66044;53.142;17.962;2023-04-06T01:52:00;101710.27;;;-1.37;61.26
77019;BME280;66044;53.142;17.962;2023-04-06T01:54:26;101710.36;;;-1.39;61.36
77019;BME280;66044;53.142;17.962;2023-04-06T01:56:53;101711.77;;;-1.42;61.26
77019;BME280;66044;53.142;17.962;2023-04-06T01:59:19;101713.39;;;-1.44;61.44
77019;BME280;66044;53.142;17.962;2023-04-06T02:01:46;101712.52;;;-1.47;61.59
77019;BME280;66044;53.142;17.962;2023-04-06T02:04:13;101709.49;;;-1.49;61.56
77019;BME280;66044;53.142;17.962;2023-04-06T02:06:40;101711.44;;;-1.51;61.41
77019;BME280;66044;53.142;17.962;2023-04-06T02:09:07;101709.96;;;-1.55;61.51
77019;BME280;66044;53.142;17.962;2023-04-06T02:11:33;101704.31;;;-1.59;61.65
77019;BME280;66044;53.142;17.962;2023-04-06T02:14:00;101703.71;;;-1.65;61.58
77019;BME280;66044;53.142;17.962;2023-04-06T02:16:27;101701.94;;;-1.68;61.78
77019;BME280;66044;53.142;17.962;2023-04-06T02:18:53;101697.44;;;-1.73;61.89
77019;BME280;66044;53.142;17.962;2023-04-06T02:21:20;101701.80;;;-1.75;61.94
77019;BME280;66044;53.142;17.962;2023-04-06T02:23:47;101704.52;;;-1.75;62.01
77019;BME280;66044;53.142;17.962;2023-04-06T02:26:13;101702.77;;;-1.74;61.89
77019;BME280;66044;53.142;17.962;2023-04-06T02:28:41;101699.80;;;-1.71;61.86
77019;BME280;66044;53.142;17.962;2023-04-06T02:31:08;101698.55;;;-1.67;61.84
77019;BME280;66044;53.142;17.962;2023-04-06T02:33:35;101698.41;;;-1.61;61.77
77019;BME280;66044;53.142;17.962;2023-04-06T02:36:01;101700.41;;;-1.56;61.89
77019;BME280;66044;53.142;17.962;2023-04-06T02:38:27;101704.48;;;-1.50;61.90
77019;BME280;66044;53.142;17.962;2023-04-06T02:40:54;101705.07;;;-1.44;61.92
77019;BME280;66044;53.142;17.962;2023-04-06T02:43:21;101704.34;;;-1.38;61.61
77019;BME280;66044;53.142;17.962;2023-04-06T02:45:47;101704.01;;;-1.34;61.71
77019;BME280;66044;53.142;17.962;2023-04-06T02:48:13;101707.48;;;-1.33;61.71
77019;BME280;66044;53.142;17.962;2023-04-06T02:50:40;101708.50;;;-1.34;61.98
77019;BME280;66044;53.142;17.962;2023-04-06T02:53:07;101708.73;;;-1.35;61.87
77019;BME280;66044;53.142;17.962;2023-04-06T02:55:33;101712.17;;;-1.37;61.76
77019;BME280;66044;53.142;17.962;2023-04-06T02:58:00;101715.27;;;-1.39;61.76
77019;BME280;66044;53.142;17.962;2023-04-06T03:00:26;101715.28;;;-1.42;61.87
77019;BME280;66044;53.142;17.962;2023-04-06T03:02:53;101718.05;;;-1.44;61.79
77019;BME280;66044;53.142;17.962;2023-04-06T03:05:19;101719.27;;;-1.45;61.98
77019;BME280;66044;53.142;17.962;2023-04-06T03:07:45;101721.51;;;-1.47;61.99
77019;BME280;66044;53.142;17.962;2023-04-06T03:10:12;101720.92;;;-1.49;61.99
77019;BME280;66044;53.142;17.962;2023-04-06T03:12:39;101721.02;;;-1.52;62.11
77019;BME280;66044;53.142;17.962;2023-04-06T03:15:08;101725.61;;;-1.55;62.15
77019;BME280;66044;53.142;17.962;2023-04-06T03:17:35;101726.77;;;-1.57;62.08
77019;BME280;66044;53.142;17.962;2023-04-06T03:20:01;101727.64;;;-1.58;62.15
77019;BME280;66044;53.142;17.962;2023-04-06T03:22:29;101726.92;;;-1.59;62.28
77019;BME280;66044;53.142;17.962;2023-04-06T03:24:55;101730.20;;;-1.59;62.18
77019;BME280;66044;53.142;17.962;2023-04-06T03:27:22;101729.31;;;-1.59;62.35
77019;BME280;66044;53.142;17.962;2023-04-06T03:29:48;101724.02;;;-1.57;62.32
77019;BME280;66044;53.142;17.962;2023-04-06T03:32:15;101725.69;;;-1.58;62.42
77019;BME280;66044;53.142;17.962;2023-04-06T03:34:41;101726.05;;;-1.60;62.52
77019;BME280;66044;53.142;17.962;2023-04-06T03:37:07;101726.09;;;-1.62;62.55
77019;BME280;66044;53.142;17.962;2023-04-06T03:39:34;101722.63;;;-1.65;62.51
77019;BME280;66044;53.142;17.962;2023-04-06T03:42:00;101722.27;;;-1.68;62.55
77019;BME280;66044;53.142;17.962;2023-04-06T03:44:27;101726.17;;;-1.71;62.68
77019;BME280;66044;53.142;17.962;2023-04-06T03:46:53;101729.55;;;-1.73;62.77
77019;BME280;66044;53.142;17.962;2023-04-06T03:49:19;101723.24;;;-1.76;62.71
77019;BME280;66044;53.142;17.962;2023-04-06T03:51:46;101726.98;;;-1.78;62.82
77019;BME280;66044;53.142;17.962;2023-04-06T03:54:12;101727.77;;;-1.81;62.91
77019;BME280;66044;53.142;17.962;2023-04-06T03:56:39;101729.38;;;-1.82;62.90
77019;BME280;66044;53.142;17.962;2023-04-06T03:59:05;101728.90;;;-1.84;63.06
77019;BME280;66044;53.142;17.962;2023-04-06T04:01:32;101732.77;;;-1.85;63.12
77019;BME280;66044;53.142;17.962;2023-04-06T04:03:58;101733.14;;;-1.86;62.79
77019;BME280;66044;53.142;17.962;2023-04-06T04:06:24;101728.85;;;-1.87;62.91
77019;BME280;66044;53.142;17.962;2023-04-06T04:08:51;101732.44;;;-1.86;62.88
77019;BME280;66044;53.142;17.962;2023-04-06T04:11:17;101734.10;;;-1.84;62.89
77019;BME280;66044;53.142;17.962;2023-04-06T04:13:44;101734.17;;;-1.84;62.95
77019;BME280;66044;53.142;17.962;2023-04-06T04:16:10;101739.02;;;-1.82;62.89
77019;BME280;66044;53.142;17.962;2023-04-06T04:18:37;101741.09;;;-1.80;63.10
77019;BME280;66044;53.142;17.962;2023-04-06T04:21:03;101740.70;;;-1.77;63.14
77019;BME280;66044;53.142;17.962;2023-04-06T04:23:29;101744.76;;;-1.72;63.02
77019;BME280;66044;53.142;17.962;2023-04-06T04:25:56;101742.68;;;-1.67;63.03
77019;BME280;66044;53.142;17.962;2023-04-06T04:28:22;101744.39;;;-1.63;62.87
77019;BME280;66044;53.142;17.962;2023-04-06T04:30:49;101747.28;;;-1.58;63.01
77019;BME280;66044;53.142;17.962;2023-04-06T04:33:15;101748.14;;;-1.54;63.00
77019;BME280;66044;53.142;17.962;2023-04-06T04:35:42;101743.74;;;-1.51;63.07
77019;BME280;66044;53.142;17.962;2023-04-06T04:38:08;101744.34;;;-1.51;62.97
77019;BME280;66044;53.142;17.962;2023-04-06T04:40:35;101745.31;;;-1.48;62.90
77019;BME280;66044;53.142;17.962;2023-04-06T04:43:01;101747.80;;;-1.45;62.99
77019;BME280;66044;53.142;17.962;2023-04-06T04:45:28;101742.41;;;-1.45;63.00
77019;BME280;66044;53.142;17.962;2023-04-06T04:47:54;101747.14;;;-1.43;63.01
77019;BME280;66044;53.142;17.962;2023-04-06T04:50:20;101745.89;;;-1.41;62.93
77019;BME280;66044;53.142;17.962;2023-04-06T04:52:47;101749.19;;;-1.38;62.97
77019;BME280;66044;53.142;17.962;2023-04-06T04:55:14;101750.10;;;-1.35;62.98
77019;BME280;66044;53.142;17.962;2023-04-06T04:57:40;101754.66;;;-1.32;62.81
77019;BME280;66044;53.142;17.962;2023-04-06T05:00:07;101754.56;;;-1.29;62.99
77019;BME280;66044;53.142;17.962;2023-04-06T05:02:34;101759.41;;;-1.26;63.10
77019;BME280;66044;53.142;17.962;2023-04-06T05:05:01;101758.17;;;-1.23;62.99
77019;BME280;66044;53.142;17.962;2023-04-06T05:07:27;101760.64;;;-1.19;63.23
77019;BME280;66044;53.142;17.962;2023-04-06T05:09:54;101759.05;;;-1.11;62.96
77019;BME280;66044;53.142;17.962;2023-04-06T05:12:21;101760.33;;;-1.03;62.74
77019;BME280;66044;53.142;17.962;2023-04-06T05:14:47;101759.93;;;-0.97;62.88
77019;BME280;66044;53.142;17.962;2023-04-06T05:17:14;101762.77;;;-0.90;62.80
77019;BME280;66044;53.142;17.962;2023-04-06T05:19:41;101764.65;;;-0.83;62.90
77019;BME280;66044;53.142;17.962;2023-04-06T05:22:07;101760.46;;;-0.75;62.83
77019;BME280;66044;53.142;17.962;2023-04-06T05:24:33;101762.94;;;-0.66;62.82
77019;BME280;66044;53.142;17.962;2023-04-06T05:27:01;101764.14;;;-0.54;62.43
77019;BME280;66044;53.142;17.962;2023-04-06T05:29:28;101766.68;;;-0.42;62.50
77019;BME280;66044;53.142;17.962;2023-04-06T05:31:56;101768.30;;;-0.33;62.06
77019;BME280;66044;53.142;17.962;2023-04-06T05:34:22;101768.76;;;-0.26;62.26
77019;BME280;66044;53.142;17.962;2023-04-06T05:36:49;101768.57;;;-0.19;62.32
77019;BME280;66044;53.142;17.962;2023-04-06T05:39:15;101774.02;;;-0.12;62.13
77019;BME280;66044;53.142;17.962;2023-04-06T05:41:42;101774.13;;;-0.05;62.15
77019;BME280;66044;53.142;17.962;2023-04-06T05:44:08;101768.02;;;0.00;61.78
77019;BME280;66044;53.142;17.962;2023-04-06T05:46:35;101765.54;;;0.03;61.98
77019;BME280;66044;53.142;17.962;2023-04-06T05:49:01;101767.82;;;0.07;61.78
77019;BME280;66044;53.142;17.962;2023-04-06T05:51:28;101764.36;;;0.11;61.56
77019;BME280;66044;53.142;17.962;2023-04-06T05:53:54;101770.51;;;0.13;62.00
77019;BME280;66044;53.142;17.962;2023-04-06T05:56:21;101772.44;;;0.18;61.62
77019;BME280;66044;53.142;17.962;2023-04-06T05:58:47;101770.15;;;0.24;61.84
77019;BME280;66044;53.142;17.962;2023-04-06T06:01:14;101771.58;;;0.30;61.76
77019;BME280;66044;53.142;17.962;2023-04-06T06:03:40;101772.91;;;0.38;61.60
77019;BME280;66044;53.142;17.962;2023-04-06T06:06:07;101767.34;;;0.45;61.39
77019;BME280;66044;53.142;17.962;2023-04-06T06:08:33;101768.14;;;0.50;61.42
77019;BME280;66044;53.142;17.962;2023-04-06T06:10:59;101768.43;;;0.56;61.42
77019;BME280;66044;53.142;17.962;2023-04-06T06:13:26;101766.23;;;0.64;61.22
77019;BME280;66044;53.142;17.962;2023-04-06T06:15:52;101770.11;;;0.72;61.07
77019;BME280;66044;53.142;17.962;2023-04-06T06:18:19;101765.98;;;0.80;61.15
77019;BME280;66044;53.142;17.962;2023-04-06T06:20:45;101767.67;;;0.87;61.01
77019;BME280;66044;53.142;17.962;2023-04-06T06:23:12;101767.27;;;0.93;61.06
77019;BME280;66044;53.142;17.962;2023-04-06T06:25:38;101766.15;;;1.01;60.82
77019;BME280;66044;53.142;17.962;2023-04-06T06:28:05;101763.27;;;1.09;60.93
77019;BME280;66044;53.142;17.962;2023-04-06T06:30:31;101767.66;;;1.17;60.96
77019;BME280;66044;53.142;17.962;2023-04-06T06:32:58;101769.27;;;1.26;60.76
77019;BME280;66044;53.142;17.962;2023-04-06T06:35:24;101767.42;;;1.32;60.59
77019;BME280;66044;53.142;17.962;2023-04-06T06:37:51;101772.41;;;1.39;60.37
77019;BME280;66044;53.142;17.962;2023-04-06T06:40:17;101769.88;;;1.45;60.27
77019;BME280;66044;53.142;17.962;2023-04-06T06:42:44;101773.99;;;1.53;60.27
77019;BME280;66044;53.142;17.962;2023-04-06T06:45:11;101773.59;;;1.60;60.01
77019;BME280;66044;53.142;17.962;2023-04-06T06:47:37;101773.78;;;1.68;59.85
77019;BME280;66044;53.142;17.962;2023-04-06T06:50:04;101770.27;;;1.76;60.01
77019;BME280;66044;53.142;17.962;2023-04-06T06:52:31;101768.80;;;1.87;59.72
77019;BME280;66044;53.142;17.962;2023-04-06T06:54:57;101769.17;;;1.98;59.52
77019;BME280;66044;53.142;17.962;2023-04-06T06:57:24;101769.96;;;2.07;59.44
77019;BME280;66044;53.142;17.962;2023-04-06T06:59:50;101773.86;;;2.19;59.20
77019;BME280;66044;53.142;17.962;2023-04-06T07:02:17;101770.52;;;2.30;59.10
77019;BME280;66044;53.142;17.962;2023-04-06T07:04:43;101773.41;;;2.40;58.99
77019;BME280;66044;53.142;17.962;2023-04-06T07:07:09;101780.84;;;2.50;58.83
77019;BME280;66044;53.142;17.962;2023-04-06T07:09:36;101779.30;;;2.67;58.73
77019;BME280;66044;53.142;17.962;2023-04-06T07:12:02;101777.11;;;2.90;58.45
77019;BME280;66044;53.142;17.962;2023-04-06T07:14:29;101774.30;;;3.23;58.39
77019;BME280;66044;53.142;17.962;2023-04-06T07:16:55;101766.57;;;3.51;57.92
77019;BME280;66044;53.142;17.962;2023-04-06T07:19:22;101765.55;;;3.73;57.63
77019;BME280;66044;53.142;17.962;2023-04-06T07:21:48;101770.63;;;3.96;57.02
77019;BME280;66044;53.142;17.962;2023-04-06T07:24:18;101770.90;;;4.17;56.51
77019;BME280;66044;53.142;17.962;2023-04-06T07:26:44;101766.97;;;4.36;56.38
77019;BME280;66044;53.142;17.962;2023-04-06T07:29:10;101769.36;;;4.55;56.02
77019;BME280;66044;53.142;17.962;2023-04-06T07:31:37;101771.03;;;4.79;55.65
77019;BME280;66044;53.142;17.962;2023-04-06T07:34:03;101770.91;;;5.04;55.07
77019;BME280;66044;53.142;17.962;2023-04-06T07:36:30;101772.31;;;5.26;54.56
77019;BME280;66044;53.142;17.962;2023-04-06T07:38:56;101769.75;;;5.47;54.01
77019;BME280;66044;53.142;17.962;2023-04-06T07:41:23;101764.98;;;5.60;53.61
77019;BME280;66044;53.142;17.962;2023-04-06T07:43:50;101770.90;;;5.76;52.73
77019;BME280;66044;53.142;17.962;2023-04-06T07:46:16;101766.23;;;5.87;51.70
77019;BME280;66044;53.142;17.962;2023-04-06T07:48:43;101769.33;;;6.02;51.68
77019;BME280;66044;53.142;17.962;2023-04-06T07:51:09;101769.05;;;6.20;50.88
77019;BME280;66044;53.142;17.962;2023-04-06T07:53:40;101774.91;;;6.48;50.40
77019;BME280;66044;53.142;17.962;2023-04-06T07:56:06;101771.07;;;6.84;49.74
77019;BME280;66044;53.142;17.962;2023-04-06T07:58:33;101772.52;;;7.20;49.21
77019;BME280;66044;53.142;17.962;2023-04-06T08:00:59;101773.52;;;7.70;47.88
77019;BME280;66044;53.142;17.962;2023-04-06T08:03:27;101767.29;;;8.25;47.15
77019;BME280;66044;53.142;17.962;2023-04-06T08:05:53;101770.27;;;8.89;46.99
77019;BME280;66044;53.142;17.962;2023-04-06T08:08:20;101772.55;;;9.79;45.36
77019;BME280;66044;53.142;17.962;2023-04-06T08:10:48;101772.42;;;11.40;43.09
77019;BME280;66044;53.142;17.962;2023-04-06T08:13:15;101767.98;;;12.53;42.21
77019;BME280;66044;53.142;17.962;2023-04-06T08:15:42;101776.08;;;13.23;41.38
77019;BME280;66044;53.142;17.962;2023-04-06T08:18:09;101774.27;;;13.93;39.44
77019;BME280;66044;53.142;17.962;2023-04-06T08:20:35;101777.24;;;14.84;38.07
77019;BME280;66044;53.142;17.962;2023-04-06T08:23:02;101778.93;;;15.15;36.58
77019;BME280;66044;53.142;17.962;2023-04-06T08:25:29;101776.89;;;14.68;36.21
77019;BME280;66044;53.142;17.962;2023-04-06T08:27:55;101776.88;;;14.11;35.71
77019;BME280;66044;53.142;17.962;2023-04-06T08:30:22;101773.37;;;13.56;35.49
77019;BME280;66044;53.142;17.962;2023-04-06T08:32:49;101770.91;;;13.26;35.33
77019;BME280;66044;53.142;17.962;2023-04-06T08:35:16;101767.70;;;12.77;35.40
77019;BME280;66044;53.142;17.962;2023-04-06T08:37:42;101766.16;;;12.31;34.93
77019;BME280;66044;53.142;17.962;2023-04-06T08:40:09;101773.23;;;11.95;35.23
77019;BME280;66044;53.142;17.962;2023-04-06T08:42:40;101770.18;;;11.74;34.73
77019;BME280;66044;53.142;17.962;2023-04-06T08:45:08;101768.35;;;11.32;35.39
77019;BME280;66044;53.142;17.962;2023-04-06T08:47:36;101765.11;;;10.90;35.21
77019;BME280;66044;53.142;17.962;2023-04-06T08:50:04;101764.80;;;10.52;35.24
77019;BME280;66044;53.142;17.962;2023-04-06T08:52:32;101764.80;;;10.29;35.36
77019;BME280;66044;53.142;17.962;2023-04-06T08:55:00;101762.57;;;10.14;35.52
77019;BME280;66044;53.142;17.962;2023-04-06T08:57:27;101760.12;;;10.03;35.43
77019;BME280;66044;53.142;17.962;2023-04-06T08:59:54;101759.21;;;10.00;35.65
77019;BME280;66044;53.142;17.962;2023-04-06T09:02:22;101761.04;;;10.00;35.61
77019;BME280;66044;53.142;17.962;2023-04-06T09:04:53;101759.70;;;9.97;35.31
77019;BME280;66044;53.142;17.962;2023-04-06T09:07:20;101754.21;;;9.98;35.21
77019;BME280;66044;53.142;17.962;2023-04-06T09:09:47;101749.66;;;9.87;35.21
77019;BME280;66044;53.142;17.962;2023-04-06T09:12:27;101744.56;;;9.67;34.91
77019;BME280;66044;53.142;17.962;2023-04-06T09:14:55;101744.27;;;9.58;34.99
77019;BME280;66044;53.142;17.962;2023-04-06T09:17:27;101737.85;;;9.58;35.04
77019;BME280;66044;53.142;17.962;2023-04-06T09:19:54;101735.27;;;9.44;34.61
77019;BME280;66044;53.142;17.962;2023-04-06T09:22:22;101742.28;;;9.20;35.31
77019;BME280;66044;53.142;17.962;2023-04-06T09:24:52;101737.80;;;9.03;35.11
77019;BME280;66044;53.142;17.962;2023-04-06T09:27:36;101737.01;;;8.97;35.33
77019;BME280;66044;53.142;17.962;2023-04-06T09:30:06;101732.66;;;8.89;35.51
77019;BME280;66044;53.142;17.962;2023-04-06T09:32:44;101728.77;;;8.85;35.44
77019;BME280;66044;53.142;17.962;2023-04-06T09:35:12;101732.97;;;8.90;35.79
77019;BME280;66044;53.142;17.962;2023-04-06T09:37:39;101729.20;;;8.80;35.39
77019;BME280;66044;53.142;17.962;2023-04-06T09:40:06;101728.73;;;8.74;35.50
77019;BME280;66044;53.142;17.962;2023-04-06T09:42:34;101725.02;;;8.67;35.54
77019;BME280;66044;53.142;17.962;2023-04-06T09:45:05;101717.48;;;8.56;35.91
77019;BME280;66044;53.142;17.962;2023-04-06T09:47:32;101716.14;;;8.47;35.48
77019;BME280;66044;53.142;17.962;2023-04-06T09:50:02;101717.70;;;8.19;35.78
77019;BME280;66044;53.142;17.962;2023-04-06T09:52:33;101723.76;;;8.13;35.60
77019;BME280;66044;53.142;17.962;2023-04-06T09:55:05;101724.48;;;8.00;35.68
77019;BME280;66044;53.142;17.962;2023-04-06T09:57:37;101725.77;;;7.93;36.14
77019;BME280;66044;53.142;17.962;2023-04-06T10:00:09;101722.61;;;7.99;35.99
77019;BME280;66044;53.142;17.962;2023-04-06T10:07:59;101727.06;;;8.14;36.45
77019;BME280;66044;53.142;17.962;2023-04-06T10:10:28;101725.08;;;8.10;36.16
77019;BME280;66044;53.142;17.962;2023-04-06T10:12:55;101720.21;;;8.14;36.13
77019;BME280;66044;53.142;17.962;2023-04-06T10:15:22;101718.80;;;8.29;36.35
77019;BME280;66044;53.142;17.962;2023-04-06T10:17:51;101705.90;;;8.45;36.31
77019;BME280;66044;53.142;17.962;2023-04-06T10:25:54;101710.73;;;8.66;35.76
77019;BME280;66044;53.142;17.962;2023-04-06T10:28:22;101700.71;;;8.57;35.95
77019;BME280;66044;53.142;17.962;2023-04-06T10:30:49;101704.88;;;8.67;35.89
77019;BME280;66044;53.142;17.962;2023-04-06T10:33:17;101702.58;;;8.83;35.75
77019;BME280;66044;53.142;17.962;2023-04-06T10:35:45;101701.06;;;8.92;36.10
77019;BME280;66044;53.142;17.962;2023-04-06T10:38:12;101701.13;;;9.04;36.42
77019;BME280;66044;53.142;17.962;2023-04-06T10:40:41;101702.53;;;9.17;36.16
77019;BME280;66044;53.142;17.962;2023-04-06T10:43:21;101699.42;;;9.21;35.61
77019;BME280;66044;53.142;17.962;2023-04-06T10:45:59;101695.83;;;9.29;36.23
77019;BME280;66044;53.142;17.962;2023-04-06T10:48:45;101706.70;;;9.26;35.46
77019;BME280;66044;53.142;17.962;2023-04-06T10:51:15;101693.21;;;8.90;34.98
77019;BME280;66044;53.142;17.962;2023-04-06T10:53:43;101686.08;;;8.75;35.09
77019;BME280;66044;53.142;17.962;2023-04-06T10:56:13;101681.14;;;8.72;35.51
77019;BME280;66044;53.142;17.962;2023-04-06T10:58:47;101677.83;;;8.71;35.41
77019;BME280;66044;53.142;17.962;2023-04-06T11:01:18;101676.16;;;8.71;35.57
77019;BME280;66044;53.142;17.962;2023-04-06T11:03:47;101675.02;;;8.73;35.41
77019;BME280;66044;53.142;17.962;2023-04-06T11:06:22;101664.11;;;8.75;35.60
77019;BME280;66044;53.142;17.962;2023-04-06T11:08:50;101663.17;;;8.82;35.92
77019;BME280;66044;53.142;17.962;2023-04-06T11:11:19;101662.67;;;8.93;36.22
77019;BME280;66044;53.142;17.962;2023-04-06T11:13:53;101661.23;;;9.02;36.12
77019;BME280;66044;53.142;17.962;2023-04-06T11:16:25;101659.16;;;9.00;35.78
77019;BME280;66044;53.142;17.962;2023-04-06T11:18:52;101655.95;;;9.00;36.08
77019;BME280;66044;53.142;17.962;2023-04-06T11:21:30;101662.52;;;9.01;36.02
77019;BME280;66044;53.142;17.962;2023-04-06T11:26:31;101647.31;;;8.82;35.71
77019;BME280;66044;53.142;17.962;2023-04-06T11:28:57;101654.13;;;8.64;35.31
77019;BME280;66044;53.142;17.962;2023-04-06T11:31:27;101643.25;;;8.40;35.60
77019;BME280;66044;53.142;17.962;2023-04-06T11:33:57;101641.15;;;8.24;36.39
77019;BME280;66044;53.142;17.962;2023-04-06T11:36:27;101640.81;;;8.13;36.27
77019;BME280;66044;53.142;17.962;2023-04-06T11:38:53;101647.49;;;7.99;36.72
77019;BME280;66044;53.142;17.962;2023-04-06T11:41:23;101648.58;;;7.83;36.91
77019;BME280;66044;53.142;17.962;2023-04-06T11:43:54;101645.31;;;7.71;37.45
77019;BME280;66044;53.142;17.962;2023-04-06T11:46:21;101641.60;;;7.56;37.23
77019;BME280;66044;53.142;17.962;2023-04-06T11:48:48;101639.11;;;7.46;37.82
77019;BME280;66044;53.142;17.962;2023-04-06T11:51:22;101635.95;;;7.43;37.89
77019;BME280;66044;53.142;17.962;2023-04-06T11:53:49;101633.71;;;7.47;38.02
77019;BME280;66044;53.142;17.962;2023-04-06T11:56:29;101629.67;;;7.45;37.73
77019;BME280;66044;53.142;17.962;2023-04-06T11:58:57;101624.96;;;7.38;37.73
77019;BME280;66044;53.142;17.962;2023-04-06T12:01:24;101618.42;;;7.35;37.91
77019;BME280;66044;53.142;17.962;2023-04-06T12:03:52;101610.84;;;7.35;38.46
77019;BME280;66044;53.142;17.962;2023-04-06T12:06:19;101608.09;;;7.42;38.34
77019;BME280;66044;53.142;17.962;2023-04-06T12:08:45;101601.94;;;7.49;38.40
77019;BME280;66044;53.142;17.962;2023-04-06T12:11:12;101611.43;;;7.58;38.48
77019;BME280;66044;53.142;17.962;2023-04-06T12:13:39;101610.63;;;7.63;38.34
77019;BME280;66044;53.142;17.962;2023-04-06T12:16:06;101608.05;;;7.69;38.18
77019;BME280;66044;53.142;17.962;2023-04-06T12:18:32;101591.65;;;7.73;38.08
77019;BME280;66044;53.142;17.962;2023-04-06T12:20:59;101593.52;;;7.84;38.50
77019;BME280;66044;53.142;17.962;2023-04-06T12:23:25;101594.14;;;7.94;38.51
77019;BME280;66044;53.142;17.962;2023-04-06T12:25:52;101586.92;;;8.03;38.16
77019;BME280;66044;53.142;17.962;2023-04-06T12:28:18;101591.31;;;8.08;38.12
77019;BME280;66044;53.142;17.962;2023-04-06T12:30:46;101589.21;;;8.18;38.27
77019;BME280;66044;53.142;17.962;2023-04-06T12:33:13;101585.96;;;8.31;38.28
77019;BME280;66044;53.142;17.962;2023-04-06T12:35:39;101581.64;;;8.43;37.82
77019;BME280;66044;53.142;17.962;2023-04-06T12:38:06;101580.77;;;8.52;37.46
77019;BME280;66044;53.142;17.962;2023-04-06T12:40:36;101579.34;;;8.58;37.46
77019;BME280;66044;53.142;17.962;2023-04-06T12:43:03;101577.76;;;8.68;37.58
77019;BME280;66044;53.142;17.962;2023-04-06T12:45:30;101573.77;;;8.76;37.54
77019;BME280;66044;53.142;17.962;2023-04-06T12:47:57;101573.14;;;8.75;37.25
77019;BME280;66044;53.142;17.962;2023-04-06T12:50:24;101575.00;;;8.65;37.06
77019;BME280;66044;53.142;17.962;2023-04-06T12:52:51;101570.74;;;8.56;36.95
77019;BME280;66044;53.142;17.962;2023-04-06T12:55:18;101561.08;;;8.58;36.91
77019;BME280;66044;53.142;17.962;2023-04-06T12:57:44;101562.40;;;8.73;37.34
77019;BME280;66044;53.142;17.962;2023-04-06T13:00:12;101551.36;;;8.83;36.85